Time;durP1;ratioP1;P1;durP2;ratioP2;P2;SDS_P1;SDS_P2;PMS_P1;PMS_P2;Temp;Humidity;BMP_temperature;BMP_pressure;BME280_temperature;BME280_humidity;BME280_pressure;Samples;Min_cycle;Max_cycle;Signal;HPM_P1;HPM_P2
2024/02/25 00:00:50;;;;;;;27.70;8.20;;;;;;;14.13;56.71;102058.77;107086;1256;22558;-55
2024/02/25 00:03:17;;;;;;;25.10;8.10;;;;;;;14.13;56.82;102060.85;107117;1256;25502;-55
2024/02/25 00:05:44;;;;;;;24.90;8.40;;;;;;;14.14;56.80;102062.92;107072;1257;25351;-55
2024/02/25 00:08:11;;;;;;;19.90;7.00;;;;;;;14.16;56.73;102063.23;107024;1251;25428;-55
2024/02/25 00:10:38;;;;;;;21.00;7.00;;;;;;;14.17;56.80;102060.25;107138;1253;25341;-55
2024/02/25 00:13:05;;;;;;;18.10;6.90;;;;;;;14.19;56.70;102063.55;107141;1252;25428;-55
2024/02/25 00:15:32;;;;;;;22.90;7.80;;;;;;;14.20;56.75;102063.01;107062;1251;25379;-55
2024/02/25 00:17:59;;;;;;;27.50;8.20;;;;;;;14.22;56.71;102063.69;106752;1260;25464;-55
2024/02/25 00:20:26;;;;;;;23.10;7.60;;;;;;;14.23;56.67;102062.79;107129;1254;25495;-55
2024/02/25 00:22:54;;;;;;;28.30;7.30;;;;;;;14.24;56.60;102064.32;107067;1257;25344;-55
2024/02/25 00:25:21;;;;;;;25.50;8.10;;;;;;;14.26;56.58;102063.60;107047;1257;24371;-55
2024/02/25 00:27:48;;;;;;;22.00;7.20;;;;;;;14.27;56.59;102064.46;106793;1257;25366;-55
2024/02/25 00:30:16;;;;;;;24.20;7.30;;;;;;;14.29;56.48;102064.46;106814;1260;25394;-55
2024/02/25 00:32:43;;;;;;;24.00;6.70;;;;;;;14.29;56.43;102064.27;107077;1257;25416;-55
2024/02/25 00:35:10;;;;;;;23.70;8.80;;;;;;;14.31;56.49;102063.03;107034;1254;25369;-55
2024/02/25 00:37:38;;;;;;;27.90;8.20;;;;;;;14.32;56.40;102062.84;107097;1256;25363;-55
2024/02/25 00:40:06;;;;;;;22.00;7.30;;;;;;;14.32;56.33;102063.17;107141;1252;25377;-55
2024/02/25 00:42:33;;;;;;;34.50;9.00;;;;;;;14.34;56.40;102065.08;107021;1257;25379;-55
2024/02/25 00:45:00;;;;;;;24.10;8.30;;;;;;;14.35;56.35;102060.34;107112;1253;25490;-55
2024/02/25 00:47:31;;;;;;;20.20;6.90;;;;;;;14.37;56.21;102062.05;107037;1255;22537;-55
2024/02/25 00:49:59;;;;;;;26.00;7.90;;;;;;;14.37;56.25;102064.33;107065;1267;25424;-55
2024/02/25 00:52:27;;;;;;;22.00;7.30;;;;;;;14.37;56.14;102068.17;107022;1257;25348;-55
2024/02/25 00:54:54;;;;;;;21.60;8.00;;;;;;;14.38;56.15;102067.80;107017;1263;22531;-55
2024/02/25 00:57:21;;;;;;;23.20;6.80;;;;;;;14.38;56.13;102065.53;106774;1260;25365;-55
2024/02/25 00:59:48;;;;;;;26.70;7.90;;;;;;;14.39;56.12;102067.10;107038;1259;22537;-55
2024/02/25 01:02:15;;;;;;;20.30;7.40;;;;;;;14.39;56.07;102059.58;106923;1259;25379;-55
2024/02/25 01:04:42;;;;;;;26.70;8.00;;;;;;;14.39;56.15;102064.13;107100;1267;25378;-55
2024/02/25 01:07:09;;;;;;;19.50;8.20;;;;;;;14.37;56.23;102064.50;107029;1258;25413;-55
2024/02/25 01:09:37;;;;;;;26.50;8.30;;;;;;;14.40;56.08;102064.64;107262;1257;25341;-55
2024/02/25 01:12:04;;;;;;;18.10;7.10;;;;;;;14.41;56.00;102059.55;107111;1264;25521;-55
2024/02/25 01:14:31;;;;;;;23.50;7.80;;;;;;;14.41;56.11;102059.02;107138;1254;25464;-55
2024/02/25 01:16:58;;;;;;;28.10;7.90;;;;;;;14.41;56.01;102061.11;107196;1254;23429;-56
2024/02/25 01:19:25;;;;;;;23.50;8.50;;;;;;;14.41;56.01;102061.12;107136;1254;25256;-55
2024/02/25 01:21:52;;;;;;;20.90;7.50;;;;;;;14.40;56.00;102062.36;107067;1257;25370;-55
2024/02/25 01:24:19;;;;;;;26.80;8.30;;;;;;;14.39;55.98;102060.29;106987;1264;25351;-55
2024/02/25 01:26:46;;;;;;;30.70;8.10;;;;;;;14.39;55.96;102054.00;107029;1256;25355;-55
2024/02/25 01:29:13;;;;;;;22.80;7.20;;;;;;;14.39;55.92;102050.33;107024;1253;25333;-55
2024/02/25 01:31:42;;;;;;;23.00;7.20;;;;;;;14.38;55.93;102046.67;106794;1267;25344;-56
2024/02/25 01:34:10;;;;;;;27.70;8.90;;;;;;;14.37;55.95;102047.39;107115;1255;22573;-55
2024/02/25 01:36:39;;;;;;;24.10;7.90;;;;;;;14.35;56.02;102046.89;106926;1269;25270;-55
2024/02/25 01:39:07;;;;;;;26.40;7.60;;;;;;;14.35;56.06;102043.41;107129;1257;25415;-55
2024/02/25 01:41:34;;;;;;;25.00;8.20;;;;;;;14.33;56.02;102042.39;107164;1261;22543;-55
2024/02/25 01:44:01;;;;;;;21.30;7.40;;;;;;;14.32;56.16;102047.30;107153;1257;25416;-55
2024/02/25 01:46:28;;;;;;;30.20;8.50;;;;;;;14.30;56.15;102044.71;107082;1255;22543;-55
2024/02/25 01:48:55;;;;;;;25.40;7.60;;;;;;;14.30;56.28;102046.48;107007;1257;25396;-55
2024/02/25 01:51:23;;;;;;;22.40;7.40;;;;;;;14.30;56.23;102048.04;106818;1259;25440;-55
2024/02/25 01:53:52;;;;;;;22.10;7.40;;;;;;;14.30;56.31;102048.55;107000;1258;25351;-55
2024/02/25 01:56:20;;;;;;;22.60;7.70;;;;;;;14.29;56.31;102049.63;106068;1267;1003386;-55
2024/02/25 01:58:47;;;;;;;25.40;8.10;;;;;;;14.29;56.24;102052.59;107135;1251;25402;-55
2024/02/25 02:01:15;;;;;;;18.50;6.90;;;;;;;14.27;56.34;102059.41;106811;1256;25351;-55
2024/02/25 02:03:42;;;;;;;20.80;7.60;;;;;;;14.26;56.32;102055.92;107092;1254;25374;-55
2024/02/25 02:06:09;;;;;;;25.00;8.90;;;;;;;14.24;56.48;102052.45;106786;1261;25351;-56
2024/02/25 02:08:37;;;;;;;17.80;7.20;;;;;;;14.23;56.49;102053.70;107065;1257;23480;-55
2024/02/25 02:11:22;;;;;;;25.80;7.90;;;;;;;14.23;56.45;102052.66;107050;1253;22553;-55
2024/02/25 02:13:49;;;;;;;23.00;6.70;;;;;;;14.22;56.41;102049.52;106981;1259;25343;-55
2024/02/25 02:16:16;;;;;;;27.50;7.60;;;;;;;14.22;56.43;102051.98;107135;1267;25364;-55
2024/02/25 02:18:44;;;;;;;19.90;8.30;;;;;;;14.21;56.51;102052.88;107079;1253;25450;-55
2024/02/25 02:21:15;;;;;;;22.10;7.60;;;;;;;14.22;56.43;102050.41;106997;1254;22656;-55
2024/02/25 02:23:42;;;;;;;23.40;8.40;;;;;;;14.21;56.49;102050.95;106803;1253;25345;-55
2024/02/25 02:26:09;;;;;;;21.00;7.30;;;;;;;14.20;56.46;102047.48;106944;1257;25585;-56
2024/02/25 02:28:36;;;;;;;17.30;6.30;;;;;;;14.18;56.50;102045.23;107240;1256;25362;-55
2024/02/25 02:31:03;;;;;;;19.80;6.80;;;;;;;14.17;56.47;102043.86;107029;1254;25404;-56
2024/02/25 02:33:30;;;;;;;21.00;7.80;;;;;;;14.16;56.56;102040.73;106961;1259;25348;-55
2024/02/25 02:35:59;;;;;;;18.70;7.20;;;;;;;14.14;56.64;102040.75;107059;1262;25625;-55
2024/02/25 02:38:26;;;;;;;21.40;7.10;;;;;;;14.14;56.61;102036.92;107142;1256;25356;-56
2024/02/25 02:40:53;;;;;;;20.00;6.70;;;;;;;14.13;56.64;102034.33;106881;1267;25413;-56
2024/02/25 02:43:20;;;;;;;19.70;8.10;;;;;;;14.12;56.68;102033.47;107078;1262;25433;-55
2024/02/25 02:45:50;;;;;;;28.80;7.50;;;;;;;14.11;56.66;102037.33;106820;1272;25352;-55
2024/02/25 02:48:18;;;;;;;26.10;8.50;;;;;;;14.12;56.53;102039.91;106996;1257;25428;-55
2024/02/25 02:50:46;;;;;;;38.90;9.70;;;;;;;14.12;56.60;102039.40;106824;1259;25368;-56
2024/02/25 02:53:13;;;;;;;17.30;6.80;;;;;;;14.12;56.63;102038.54;107000;1272;25480;-55
2024/02/25 02:55:40;;;;;;;19.70;7.00;;;;;;;14.11;56.58;102037.32;107035;1256;25376;-55
2024/02/25 02:58:07;;;;;;;18.40;6.90;;;;;;;14.11;56.54;102036.29;107115;1267;25376;-55
2024/02/25 03:00:34;;;;;;;25.60;7.90;;;;;;;14.10;56.57;102035.23;107057;1254;25389;-55
2024/02/25 03:03:02;;;;;;;28.50;8.70;;;;;;;14.10;56.58;102034.55;107158;1256;25376;-55
2024/02/25 03:05:30;;;;;;;20.60;7.10;;;;;;;14.08;56.66;102036.66;106924;1270;25421;-55
2024/02/25 03:07:57;;;;;;;22.20;7.90;;;;;;;14.09;56.64;102041.71;107025;1257;25472;-55
2024/02/25 03:10:24;;;;;;;21.90;7.70;;;;;;;14.09;56.64;102036.66;106853;1258;25366;-55
2024/02/25 03:12:51;;;;;;;23.70;7.20;;;;;;;14.09;56.67;102038.06;107044;1255;24210;-56
2024/02/25 03:15:18;;;;;;;23.00;7.40;;;;;;;14.09;56.72;102033.52;107062;1250;23214;-55
2024/02/25 03:17:46;;;;;;;28.10;7.60;;;;;;;14.09;56.69;102036.14;106975;1251;25310;-56
2024/02/25 03:20:13;;;;;;;25.10;7.00;;;;;;;14.09;56.64;102032.81;106844;1256;25363;-56
2024/02/25 03:22:40;;;;;;;23.40;7.40;;;;;;;14.11;56.61;102034.54;106920;1269;25494;-55
2024/02/25 03:25:10;;;;;;;28.30;8.50;;;;;;;14.12;56.54;102036.43;107007;1257;25373;-56
2024/02/25 03:27:37;;;;;;;24.90;8.10;;;;;;;14.12;56.46;102032.77;107020;1263;24291;-55
2024/02/25 03:30:09;;;;;;;30.30;8.30;;;;;;;14.13;56.44;102033.29;106183;1256;1003250;-56
2024/02/25 03:32:36;;;;;;;21.20;7.30;;;;;;;14.12;56.37;102035.04;107122;1253;24284;-55
2024/02/25 03:35:03;;;;;;;19.80;7.40;;;;;;;14.11;56.43;102037.68;107065;1253;25383;-55
2024/02/25 03:37:31;;;;;;;22.30;7.20;;;;;;;14.10;56.40;102043.10;107135;1259;25341;-55
2024/02/25 03:39:58;;;;;;;26.80;7.90;;;;;;;14.06;56.42;102048.57;106991;1268;25336;-55
2024/02/25 03:42:28;;;;;;;25.40;10.00;;;;;;;13.99;56.66;102047.98;107071;1256;25352;-56
2024/02/25 03:44:55;;;;;;;21.30;8.00;;;;;;;14.07;56.42;102055.89;107011;1255;25365;-55
2024/02/25 03:47:23;;;;;;;29.80;8.50;;;;;;;14.07;56.40;102058.67;107137;1256;25369;-55
2024/02/25 03:49:51;;;;;;;20.70;7.60;;;;;;;14.08;56.43;102062.16;106847;1265;25298;-55
2024/02/25 03:52:18;;;;;;;21.50;7.10;;;;;;;14.09;56.35;102064.23;107003;1256;25491;-55
2024/02/25 03:54:47;;;;;;;21.90;7.60;;;;;;;14.09;56.25;102072.08;107066;1257;25389;-55
2024/02/25 03:57:13;;;;;;;32.00;8.30;;;;;;;14.10;56.33;102078.18;106903;1262;22526;-56
2024/02/25 03:59:41;;;;;;;22.40;6.60;;;;;;;14.09;56.28;102083.43;107135;1255;24275;-56
2024/02/25 04:02:08;;;;;;;26.30;8.50;;;;;;;14.09;56.30;102090.75;107077;1254;25417;-56
2024/02/25 04:04:35;;;;;;;26.60;6.80;;;;;;;14.10;56.30;102094.58;107066;1256;25369;-56
2024/02/25 04:07:02;;;;;;;24.60;7.50;;;;;;;14.10;56.33;102096.66;106939;1253;25380;-56
2024/02/25 04:09:29;;;;;;;20.50;7.30;;;;;;;14.11;56.24;102108.17;107127;1263;25380;-55
2024/02/25 04:11:56;;;;;;;22.60;7.60;;;;;;;14.11;56.28;102115.15;107098;1257;25380;-55
2024/02/25 04:14:25;;;;;;;26.00;8.70;;;;;;;14.12;56.29;102116.00;107112;1264;25501;-55
2024/02/25 04:16:52;;;;;;;28.20;8.50;;;;;;;14.13;56.27;102119.13;107115;1256;25491;-55
2024/02/25 04:19:19;;;;;;;24.40;7.90;;;;;;;14.13;56.22;102126.10;106983;1257;25501;-55
2024/02/25 04:21:46;;;;;;;24.50;8.00;;;;;;;14.15;56.14;102126.79;107167;1263;25379;-55
2024/02/25 04:24:13;;;;;;;23.70;7.40;;;;;;;14.17;56.06;102130.06;107126;1256;25398;-56
2024/02/25 04:26:44;;;;;;;23.70;7.70;;;;;;;14.18;56.02;102130.23;107045;1267;25528;-56
2024/02/25 04:29:11;;;;;;;25.30;6.90;;;;;;;14.17;55.89;102135.48;107110;1256;25386;-56
2024/02/25 04:31:48;;;;;;;26.20;8.00;;;;;;;14.14;55.89;102137.78;107053;1263;22517;-56
2024/02/25 04:34:15;;;;;;;20.80;6.70;;;;;;;14.12;55.83;102139.73;107046;1265;22537;-56
2024/02/25 04:36:42;;;;;;;24.30;7.20;;;;;;;14.09;55.82;102136.11;107106;1256;25432;-54
2024/02/25 04:39:09;;;;;;;31.40;9.00;;;;;;;14.06;55.87;102134.25;107137;1258;23343;-55
2024/02/25 04:41:36;;;;;;;23.40;7.40;;;;;;;14.04;55.79;102131.65;107083;1257;25380;-55
2024/02/25 04:44:06;;;;;;;20.10;7.50;;;;;;;14.04;55.80;102133.21;107094;1265;25404;-56
2024/02/25 04:46:33;;;;;;;31.90;8.80;;;;;;;14.04;55.71;102135.51;107145;1251;25368;-55
2024/02/25 04:49:00;;;;;;;20.10;7.30;;;;;;;14.02;55.76;102135.34;106985;1255;25373;-55
2024/02/25 04:51:29;;;;;;;33.10;9.50;;;;;;;14.03;55.82;102142.32;107122;1258;25440;-55
2024/02/25 04:53:57;;;;;;;27.00;7.70;;;;;;;14.05;55.86;102139.14;107050;1259;22520;-55
2024/02/25 04:56:28;;;;;;;29.10;8.90;;;;;;;14.07;55.96;102137.73;107156;1253;25050;-55
2024/02/25 04:58:55;;;;;;;22.40;7.60;;;;;;;14.09;55.89;102143.45;107070;1254;22610;-55
2024/02/25 05:01:22;;;;;;;28.80;7.70;;;;;;;14.09;55.79;102145.89;107024;1258;25352;-55
2024/02/25 05:03:49;;;;;;;25.80;8.00;;;;;;;14.08;55.80;102146.25;106491;1267;578176;-55
2024/02/25 05:06:16;;;;;;;26.90;8.00;;;;;;;14.06;55.95;102145.42;107026;1252;25352;-55
2024/02/25 05:08:44;;;;;;;25.70;8.00;;;;;;;14.07;55.95;102145.75;107051;1256;25472;-55
2024/02/25 05:11:11;;;;;;;27.50;8.40;;;;;;;14.05;55.95;102142.11;107041;1263;25485;-55
2024/02/25 05:13:38;;;;;;;24.40;7.90;;;;;;;14.02;55.96;102146.52;107074;1253;25340;-55
2024/02/25 05:16:07;;;;;;;26.00;7.80;;;;;;;13.98;56.03;102141.50;106917;1259;25407;-55
2024/02/25 05:18:34;;;;;;;26.80;8.50;;;;;;;13.95;56.14;102146.98;107070;1256;22511;-56
2024/02/25 05:21:02;;;;;;;24.70;7.50;;;;;;;13.93;56.27;102147.52;107001;1256;23243;-56
2024/02/25 05:23:29;;;;;;;25.50;7.30;;;;;;;13.91;56.37;102149.45;107021;1253;25387;-55
2024/02/25 05:25:56;;;;;;;22.20;6.80;;;;;;;13.91;56.48;102148.77;107097;1253;25341;-56
2024/02/25 05:28:24;;;;;;;21.00;7.40;;;;;;;13.92;56.59;102148.56;107099;1258;25377;-56
2024/02/25 05:30:52;;;;;;;20.80;6.70;;;;;;;13.93;56.63;102150.48;107096;1251;25357;-56
2024/02/25 05:33:21;;;;;;;19.20;6.70;;;;;;;13.96;56.59;102143.28;107018;1264;25536;-55
2024/02/25 05:35:48;;;;;;;19.00;6.90;;;;;;;13.97;56.53;102144.33;106953;1263;25383;-55
2024/02/25 05:38:16;;;;;;;26.20;7.10;;;;;;;13.95;56.50;102142.94;106771;1264;25348;-55
2024/02/25 05:40:43;;;;;;;21.20;7.00;;;;;;;13.91;56.58;102142.65;106854;1266;25449;-55
2024/02/25 05:43:10;;;;;;;16.40;5.90;;;;;;;13.89;56.58;102145.30;107125;1257;23313;-55
2024/02/25 05:45:37;;;;;;;21.70;7.10;;;;;;;13.88;56.71;102143.91;107019;1256;25351;-54
2024/02/25 05:48:05;;;;;;;22.00;7.60;;;;;;;13.88;56.77;102150.38;107041;1256;22520;-55
2024/02/25 05:50:32;;;;;;;20.70;7.10;;;;;;;13.88;56.78;102152.45;106820;1256;25349;-55
2024/02/25 05:52:59;;;;;;;19.60;6.10;;;;;;;13.90;56.77;102155.05;107005;1256;22527;-55
2024/02/25 05:55:26;;;;;;;19.90;6.40;;;;;;;13.91;56.79;102151.70;107028;1256;25376;-55
2024/02/25 05:57:54;;;;;;;25.10;6.80;;;;;;;13.92;56.76;102157.12;107072;1254;25465;-55
2024/02/25 06:00:22;;;;;;;17.00;6.00;;;;;;;13.92;56.77;102159.73;107150;1256;23466;-55
2024/02/25 06:02:49;;;;;;;23.10;7.80;;;;;;;13.92;56.75;102161.13;106998;1265;25402;-55
2024/02/25 06:05:16;;;;;;;22.10;7.20;;;;;;;13.93;56.80;102163.55;107094;1258;23091;-55
2024/02/25 06:07:44;;;;;;;18.70;6.70;;;;;;;13.93;56.78;102167.57;107061;1257;25428;-54
2024/02/25 06:10:11;;;;;;;20.30;6.10;;;;;;;13.94;56.82;102168.94;106845;1260;25350;-55
2024/02/25 06:12:39;;;;;;;19.90;6.80;;;;;;;13.98;56.88;102168.73;107011;1254;23293;-55
2024/02/25 06:15:11;;;;;;;23.70;7.50;;;;;;;14.01;56.71;102169.73;107057;1263;22529;-55
2024/02/25 06:17:38;;;;;;;24.90;7.80;;;;;;;14.04;56.79;102172.48;107057;1256;25267;-55
2024/02/25 06:20:08;;;;;;;23.20;6.80;;;;;;;14.09;56.77;102178.70;106968;1257;25403;-55
2024/02/25 06:22:38;;;;;;;20.60;6.70;;;;;;;14.17;56.64;102174.05;106729;1262;25409;-55
2024/02/25 06:25:05;;;;;;;15.80;5.90;;;;;;;14.22;56.41;102171.88;107075;1252;22532;-55
2024/02/25 06:27:35;;;;;;;17.70;6.80;;;;;;;14.28;56.30;102173.90;107044;1253;22550;-55
2024/02/25 06:30:06;;;;;;;20.60;6.40;;;;;;;14.34;56.12;102171.73;106956;1253;24226;-55
2024/02/25 06:32:33;;;;;;;17.00;5.50;;;;;;;14.38;56.01;102173.08;106940;1259;25443;-55
2024/02/25 06:35:02;;;;;;;22.50;6.10;;;;;;;14.42;55.85;102173.90;107155;1259;25400;-56
2024/02/25 06:37:29;;;;;;;20.00;6.80;;;;;;;14.44;55.73;102172.98;107169;1266;22560;-54
2024/02/25 06:39:57;;;;;;;16.20;5.60;;;;;;;14.48;55.66;102174.50;106804;1266;25367;-54
2024/02/25 06:42:24;;;;;;;18.80;6.80;;;;;;;14.53;55.57;102178.79;106819;1271;25366;-55
2024/02/25 06:44:51;;;;;;;16.40;6.30;;;;;;;14.59;55.41;102171.36;106984;1266;25341;-55
2024/02/25 06:47:19;;;;;;;18.80;6.50;;;;;;;14.68;55.19;102172.25;106824;1267;25405;-55
2024/02/25 06:49:46;;;;;;;19.30;6.60;;;;;;;14.75;54.86;102169.70;107015;1259;25389;-55
2024/02/25 06:52:13;;;;;;;16.70;5.70;;;;;;;14.78;54.67;102171.21;107021;1256;25376;-54
2024/02/25 06:54:43;;;;;;;16.00;5.20;;;;;;;14.80;54.55;102172.06;107012;1257;25466;-55
2024/02/25 06:57:15;;;;;;;21.30;7.00;;;;;;;14.81;54.45;102169.25;106292;1255;1003281;-55
2024/02/25 06:59:42;;;;;;;19.40;5.60;;;;;;;14.81;54.37;102165.22;106995;1263;25351;-55
2024/02/25 07:02:09;;;;;;;15.10;6.10;;;;;;;14.79;54.32;102163.52;107046;1256;22536;-55
2024/02/25 07:04:36;;;;;;;20.00;6.50;;;;;;;14.78;54.26;102164.23;107006;1259;25348;-55
2024/02/25 07:07:04;;;;;;;22.50;5.70;;;;;;;14.76;54.23;102161.13;107088;1256;25376;-55
2024/02/25 07:09:32;;;;;;;20.80;7.00;;;;;;;14.74;54.23;102159.23;107061;1257;24144;-55
2024/02/25 07:11:59;;;;;;;14.50;5.10;;;;;;;14.73;54.18;102157.69;106770;1261;24367;-55
2024/02/25 07:14:28;;;;;;;15.40;5.50;;;;;;;14.73;54.22;102157.33;107197;1255;25376;-55
2024/02/25 07:16:55;;;;;;;18.50;6.00;;;;;;;14.66;54.20;102157.61;107041;1259;25341;-55
2024/02/25 07:19:23;;;;;;;21.70;6.50;;;;;;;14.71;54.12;102159.10;106856;1261;25352;-55
2024/02/25 07:21:50;;;;;;;17.00;6.30;;;;;;;14.72;54.03;102163.10;107092;1266;25424;-54
2024/02/25 07:24:17;;;;;;;14.40;5.80;;;;;;;14.74;53.98;102162.55;107016;1267;25352;-55
2024/02/25 07:26:45;;;;;;;17.40;6.50;;;;;;;14.76;53.95;102166.54;106897;1260;25376;-55
2024/02/25 07:29:12;;;;;;;19.40;6.20;;;;;;;14.77;53.82;102167.92;107008;1267;25365;-55
2024/02/25 07:31:40;;;;;;;27.30;6.50;;;;;;;14.77;53.86;102165.29;106993;1259;25490;-55
2024/02/25 07:34:07;;;;;;;17.70;5.50;;;;;;;14.79;53.70;102164.56;106811;1266;25364;-56
2024/02/25 07:36:34;;;;;;;18.40;5.80;;;;;;;14.78;53.51;102164.39;107163;1257;22529;-55
2024/02/25 07:39:02;;;;;;;17.50;6.80;;;;;;;14.77;53.61;102165.64;106348;1259;1002880;-54
2024/02/25 07:41:29;;;;;;;14.30;5.40;;;;;;;14.76;53.51;102165.48;106321;1256;1003684;-55
2024/02/25 07:43:56;;;;;;;21.50;6.20;;;;;;;14.75;53.47;102168.65;106861;1264;25376;-54
2024/02/25 07:46:25;;;;;;;15.30;6.20;;;;;;;14.73;53.37;102167.80;106990;1257;25494;-55
2024/02/25 07:48:53;;;;;;;19.30;6.10;;;;;;;14.72;53.42;102166.61;107079;1262;25376;-54
2024/02/25 07:51:22;;;;;;;17.90;5.90;;;;;;;14.69;53.43;102173.45;107178;1256;27127;-55
2024/02/25 07:53:49;;;;;;;16.00;5.90;;;;;;;14.69;53.47;102177.64;106996;1254;22639;-55
2024/02/25 07:56:19;;;;;;;16.20;6.20;;;;;;;14.54;53.86;102182.60;106834;1269;25356;-55
2024/02/25 07:58:46;;;;;;;13.50;5.20;;;;;;;14.46;54.12;102181.86;107185;1256;24353;-54
2024/02/25 08:01:13;;;;;;;15.30;5.30;;;;;;;14.45;54.09;102179.43;106335;1256;1003613;-54
2024/02/25 08:03:40;;;;;;;18.20;6.50;;;;;;;14.49;53.95;102185.30;107091;1256;24286;-54
2024/02/25 08:06:07;;;;;;;18.40;6.40;;;;;;;14.63;53.59;102184.56;106301;1259;1003028;-55
2024/02/25 08:08:34;;;;;;;18.30;6.00;;;;;;;14.64;53.52;102182.79;106999;1255;24253;-55
2024/02/25 08:11:01;;;;;;;17.30;6.80;;;;;;;14.66;53.53;102182.23;106973;1268;25380;-54
2024/02/25 08:13:29;;;;;;;20.10;6.20;;;;;;;14.67;53.51;102179.59;107145;1257;25616;-55
2024/02/25 08:15:56;;;;;;;20.80;5.90;;;;;;;14.70;53.59;102182.17;107110;1255;25330;-54
2024/02/25 08:18:23;;;;;;;19.80;6.60;;;;;;;14.75;53.50;102178.09;107122;1255;23311;-55
2024/02/25 08:20:50;;;;;;;29.90;6.70;;;;;;;14.77;53.38;102175.77;107057;1255;25316;-55
2024/02/25 08:23:17;;;;;;;14.00;5.80;;;;;;;14.80;53.33;102172.05;107037;1269;25427;-55
2024/02/25 08:25:44;;;;;;;14.80;5.80;;;;;;;14.83;53.38;102173.08;107134;1263;25351;-55
2024/02/25 08:28:11;;;;;;;16.10;6.00;;;;;;;14.87;53.20;102170.02;107129;1258;25376;-55
2024/02/25 08:30:38;;;;;;;18.80;6.00;;;;;;;14.90;53.09;102171.02;106111;1260;1003002;-55
2024/02/25 08:33:05;;;;;;;14.50;5.50;;;;;;;14.92;53.04;102170.80;107083;1265;24037;-54
2024/02/25 08:35:33;;;;;;;16.20;7.10;;;;;;;14.95;52.91;102170.77;107173;1265;25365;-55
2024/02/25 08:38:01;;;;;;;15.20;5.60;;;;;;;14.98;52.79;102174.38;106808;1260;25495;-55
2024/02/25 08:40:30;;;;;;;17.30;5.00;;;;;;;15.01;52.70;102171.70;106319;1268;1002691;-55
2024/02/25 08:42:57;;;;;;;16.40;5.80;;;;;;;15.05;52.59;102170.40;107081;1263;25358;-55
2024/02/25 08:45:24;;;;;;;10.50;5.20;;;;;;;15.07;52.42;102176.30;107073;1267;22913;-55
2024/02/25 08:47:51;;;;;;;17.80;5.20;;;;;;;15.10;52.41;102175.73;107034;1269;25341;-55
2024/02/25 08:50:18;;;;;;;13.40;4.80;;;;;;;15.12;52.34;102177.96;107012;1268;25376;-55
2024/02/25 08:52:45;;;;;;;19.00;5.00;;;;;;;15.15;52.22;102178.61;107088;1254;25483;-55
2024/02/25 08:55:12;;;;;;;13.00;5.30;;;;;;;15.19;52.01;102180.28;107061;1268;25383;-55
2024/02/25 08:57:39;;;;;;;12.80;5.50;;;;;;;15.21;51.97;102181.12;107016;1265;25351;-55
2024/02/25 09:00:07;;;;;;;12.60;5.60;;;;;;;15.24;51.94;102183.50;107033;1257;25341;-55
2024/02/25 09:02:36;;;;;;;16.20;5.70;;;;;;;15.28;51.89;102184.84;107063;1267;25472;-55
2024/02/25 09:05:05;;;;;;;16.50;5.10;;;;;;;15.34;51.74;102189.78;107094;1263;22523;-55
2024/02/25 09:07:32;;;;;;;14.30;5.60;;;;;;;15.39;51.73;102187.95;106812;1260;24512;-55
2024/02/25 09:09:59;;;;;;;17.00;6.20;;;;;;;15.46;51.62;102183.83;107017;1259;25488;-55
2024/02/25 09:12:26;;;;;;;13.70;5.60;;;;;;;15.52;51.48;102185.96;107140;1269;22520;-55
2024/02/25 09:14:53;;;;;;;16.00;5.50;;;;;;;15.57;51.26;102181.16;106863;1257;25369;-55
2024/02/25 09:17:20;;;;;;;18.60;6.20;;;;;;;15.60;51.18;102181.79;106763;1267;25352;-55
2024/02/25 09:19:48;;;;;;;15.00;5.20;;;;;;;15.60;51.09;102179.36;106806;1256;25348;-55
2024/02/25 09:22:15;;;;;;;12.60;4.50;;;;;;;15.42;51.48;102182.66;106725;1267;25521;-55
2024/02/25 09:24:44;;;;;;;14.90;5.50;;;;;;;15.38;51.58;102179.05;106851;1252;22523;-55
2024/02/25 09:27:12;;;;;;;15.40;5.20;;;;;;;15.38;51.63;102176.95;106858;1275;25351;-55
2024/02/25 09:29:40;;;;;;;12.30;4.90;;;;;;;15.41;51.57;102175.67;107058;1258;25428;-55
2024/02/25 09:32:08;;;;;;;15.30;5.90;;;;;;;15.44;51.53;102171.09;107031;1256;27122;-55
2024/02/25 09:34:43;;;;;;;13.50;5.50;;;;;;;15.45;51.20;102173.52;107093;1267;25412;-55
2024/02/25 09:37:11;;;;;;;11.10;4.80;;;;;;;15.45;51.31;102173.52;107132;1256;22602;-55
2024/02/25 09:39:40;;;;;;;13.60;4.90;;;;;;;15.37;51.49;102174.86;107071;1257;25352;-55
2024/02/25 09:42:07;;;;;;;16.50;5.50;;;;;;;15.36;51.51;102178.73;107094;1268;22573;-56
2024/02/25 09:44:37;;;;;;;10.90;4.70;;;;;;;15.44;51.26;102176.69;107076;1268;25403;-55
2024/02/25 09:47:07;;;;;;;8.90;4.90;;;;;;;15.45;51.09;102177.54;107118;1268;25338;-56
2024/02/25 09:49:35;;;;;;;13.50;5.30;;;;;;;15.44;51.12;102172.84;107138;1267;24309;-55
2024/02/25 09:52:04;;;;;;;15.90;5.20;;;;;;;15.42;51.09;102165.88;107206;1267;23274;-56
2024/02/25 09:54:31;;;;;;;9.60;4.70;;;;;;;15.41;51.10;102165.00;104053;1267;1005062;-56
2024/02/25 09:56:58;;;;;;;14.80;4.80;;;;;;;15.40;51.18;102164.84;107104;1258;24281;-55
2024/02/25 09:59:25;;;;;;;16.40;5.50;;;;;;;15.40;51.18;102163.61;106886;1269;25328;-55
2024/02/25 10:01:52;;;;;;;14.20;5.70;;;;;;;15.40;51.13;102161.52;106241;1269;1003567;-56
2024/02/25 10:04:23;;;;;;;13.50;5.10;;;;;;;15.39;51.21;102159.10;107094;1269;22568;-55
2024/02/25 10:06:50;;;;;;;16.40;5.20;;;;;;;15.38;51.18;102162.60;106965;1272;25381;-55
2024/02/25 10:09:31;;;;;;;11.40;4.60;;;;;;;15.38;51.22;102155.96;107081;1269;25526;-55
2024/02/25 10:11:58;;;;;;;15.30;4.90;;;;;;;15.38;51.26;102151.78;107153;1256;25397;-57
2024/02/25 10:14:26;;;;;;;13.10;4.60;;;;;;;15.37;51.19;102150.75;106882;1268;25431;-55
2024/02/25 10:17:02;;;;;;;13.80;5.50;;;;;;;15.35;51.19;102150.25;107085;1267;25415;-55
2024/02/25 10:19:30;;;;;;;14.40;6.30;;;;;;;15.33;51.13;102153.98;107043;1260;25573;-57
2024/02/25 10:22:11;;;;;;;12.10;5.30;;;;;;;15.29;51.28;102148.10;106850;1269;25358;-56
2024/02/25 10:24:40;;;;;;;13.80;4.80;;;;;;;15.28;51.44;102147.25;106807;1269;25599;-55
2024/02/25 10:27:11;;;;;;;13.40;5.00;;;;;;;15.29;51.43;102149.15;106850;1275;22600;-56
2024/02/25 10:29:52;;;;;;;11.60;4.50;;;;;;;15.32;51.41;102141.58;106903;1269;25330;-55
2024/02/25 10:32:27;;;;;;;11.30;5.10;;;;;;;15.35;51.49;102139.25;107052;1268;25531;-55
2024/02/25 10:34:58;;;;;;;13.50;5.40;;;;;;;15.39;51.43;102143.00;106949;1269;25350;-55
2024/02/25 10:37:27;;;;;;;13.20;4.70;;;;;;;15.41;51.31;102137.20;106698;1272;25331;-55
2024/02/25 10:39:56;;;;;;;16.20;4.60;;;;;;;15.42;51.30;102133.88;106951;1255;25376;-55
2024/02/25 10:42:25;;;;;;;13.40;4.90;;;;;;;15.43;51.29;102133.52;106880;1271;24251;-55
2024/02/25 10:44:54;;;;;;;16.30;5.20;;;;;;;15.45;51.23;102128.74;106771;1274;26154;-55
2024/02/25 10:47:25;;;;;;;12.80;5.10;;;;;;;15.47;51.25;102123.64;106997;1263;25558;-56
2024/02/25 10:49:55;;;;;;;15.60;5.30;;;;;;;15.50;51.25;102125.35;107169;1269;25410;-55
2024/02/25 10:52:25;;;;;;;14.50;5.20;;;;;;;15.52;51.15;102119.87;106962;1275;22528;-56
2024/02/25 10:54:52;;;;;;;12.30;4.80;;;;;;;15.54;51.08;102114.05;107123;1264;24342;-55
2024/02/25 10:57:20;;;;;;;14.20;4.50;;;;;;;15.57;50.90;102113.98;106970;1275;25414;-54
2024/02/25 10:59:48;;;;;;;11.80;4.40;;;;;;;15.60;50.97;102114.29;105669;1274;1003601;-55
2024/02/25 11:02:19;;;;;;;9.70;4.20;;;;;;;15.62;50.70;102112.65;107066;1269;22527;-56
2024/02/25 11:04:46;;;;;;;14.50;4.70;;;;;;;15.63;50.61;102108.44;107102;1270;24351;-55
2024/02/25 11:07:14;;;;;;;11.50;4.40;;;;;;;15.64;50.67;102107.20;107052;1274;25443;-55
2024/02/25 11:09:44;;;;;;;17.20;7.20;;;;;;;15.66;50.50;102105.23;107039;1273;25503;-55
2024/02/25 11:12:21;;;;;;;11.70;4.60;;;;;;;15.67;50.47;102101.35;107084;1269;22642;-55